createdAt,value
2023-05-09T00:02:28.642Z,39.41
2023-05-09T00:04:57.326Z,40.53
2023-05-09T00:07:25.392Z,39.86
2023-05-09T00:09:53.340Z,40.34
2023-05-09T00:12:21.880Z,39.86
2023-05-09T00:14:51.754Z,40.79
2023-05-09T00:17:22.675Z,40.84
2023-05-09T00:19:51.141Z,40.34
2023-05-09T00:22:21.392Z,39.43
2023-05-09T00:24:49.970Z,41.12
2023-05-09T00:27:18.068Z,40.79
2023-05-09T00:29:47.644Z,40.47
2023-05-09T00:32:15.813Z,40.79
2023-05-09T00:34:45.222Z,40.60
2023-05-09T00:37:13.699Z,41.06
2023-05-09T00:39:41.540Z,41.24
2023-05-09T00:42:09.558Z,41.65
2023-05-09T00:44:37.707Z,41.33
2023-05-09T00:47:05.977Z,41.08
2023-05-09T00:49:34.125Z,41.05
2023-05-09T00:52:04.952Z,41.64
2023-05-09T00:54:33.298Z,41.43
2023-05-09T00:57:01.912Z,41.65
2023-05-09T00:59:29.732Z,41.46
2023-05-09T01:01:57.696Z,42.18
2023-05-09T01:04:26.202Z,41.71
2023-05-09T01:07:04.208Z,42.75
2023-05-09T01:09:39.709Z,41.79
2023-05-09T01:12:14.955Z,42.82
2023-05-09T01:14:51.643Z,42.38
2023-05-09T01:17:33.657Z,42.12
2023-05-09T01:20:11.946Z,42.48
2023-05-09T01:22:46.694Z,43.06
2023-05-09T01:25:45.764Z,43.07
2023-05-09T01:28:35.903Z,43.45
2023-05-09T01:31:07.524Z,43.24
2023-05-09T01:33:39.684Z,42.26
2023-05-09T01:36:13.393Z,42.58
2023-05-09T01:38:45.271Z,42.94
2023-05-09T01:41:16.715Z,43.61
2023-05-09T01:43:47.351Z,42.64
2023-05-09T01:46:19.835Z,42.73
2023-05-09T01:48:49.392Z,43.20
2023-05-09T01:51:18.303Z,43.13
2023-05-09T01:53:49.545Z,43.69
2023-05-09T01:56:19.147Z,43.70
2023-05-09T01:58:50.090Z,44.00
2023-05-09T02:01:20.895Z,43.74
2023-05-09T02:03:53.825Z,44.18
2023-05-09T02:06:24.391Z,43.93
2023-05-09T02:08:52.693Z,43.88
2023-05-09T02:11:21.403Z,43.03
2023-05-09T02:13:51.368Z,43.46
2023-05-09T02:16:21.194Z,44.40
2023-05-09T02:18:49.249Z,43.83
2023-05-09T02:21:17.555Z,43.89
2023-05-09T02:23:46.196Z,44.94
2023-05-09T02:26:16.195Z,44.50
2023-05-09T02:28:45.362Z,43.84
2023-05-09T02:31:15.990Z,43.40
2023-05-09T02:33:47.994Z,44.40
2023-05-09T02:36:17.805Z,44.08
2023-05-09T02:38:46.705Z,43.83
2023-05-09T02:41:15.503Z,43.43
2023-05-09T02:43:43.855Z,44.22
2023-05-09T02:46:12.073Z,44.90
2023-05-09T02:48:39.991Z,44.73
2023-05-09T02:51:09.367Z,43.26
2023-05-09T02:53:37.617Z,43.59
2023-05-09T02:56:06.059Z,44.50
2023-05-09T02:58:34.426Z,44.89
2023-05-09T03:01:02.511Z,43.62
2023-05-09T03:03:34.147Z,42.96
2023-05-09T03:06:04.859Z,43.26
2023-05-09T03:08:34.370Z,44.92
2023-05-09T03:11:02.745Z,44.49
2023-05-09T03:13:31.797Z,44.00
2023-05-09T03:16:00.201Z,45.14
2023-05-09T03:18:28.217Z,44.87
2023-05-09T03:20:56.687Z,44.79
2023-05-09T03:23:24.953Z,45.34
2023-05-09T03:25:55.097Z,43.76
2023-05-09T03:28:23.557Z,44.55
2023-05-09T03:30:51.952Z,45.31
2023-05-09T03:33:22.376Z,45.65
2023-05-09T03:35:50.495Z,46.08
2023-05-09T03:38:18.504Z,45.15
2023-05-09T03:40:46.506Z,45.47
2023-05-09T03:43:16.608Z,45.55
2023-05-09T03:45:45.057Z,45.16
2023-05-09T03:48:16.336Z,46.10
2023-05-09T03:50:49.940Z,45.66
2023-05-09T03:53:18.036Z,46.34
2023-05-09T03:55:48.578Z,46.10
2023-05-09T03:58:20.664Z,45.06
2023-05-09T04:00:49.195Z,45.37
2023-05-09T04:03:23.183Z,46.38
2023-05-09T04:05:53.415Z,45.72
2023-05-09T04:08:30.798Z,44.77
2023-05-09T04:10:59.818Z,45.02
2023-05-09T04:13:29.993Z,45.60
2023-05-09T04:15:59.848Z,45.71
2023-05-09T04:18:30.887Z,45.76
2023-05-09T04:20:58.942Z,45.64
2023-05-09T04:23:27.344Z,46.43
2023-05-09T04:25:58.594Z,45.07
2023-05-09T04:28:27.202Z,45.88
2023-05-09T04:30:58.261Z,46.88
2023-05-09T04:33:26.404Z,46.17
2023-05-09T04:35:59.808Z,46.78
2023-05-09T04:38:27.969Z,46.03
2023-05-09T04:40:56.339Z,46.66
2023-05-09T04:43:26.463Z,45.50
2023-05-09T04:45:54.619Z,46.07
2023-05-09T04:48:26.564Z,45.93
2023-05-09T04:50:54.574Z,45.41
2023-05-09T04:53:26.069Z,46.48
2023-05-09T04:55:55.236Z,45.24
2023-05-09T04:58:25.409Z,45.83
2023-05-09T05:00:54.264Z,45.70
2023-05-09T05:03:23.770Z,45.44
2023-05-09T05:05:52.161Z,44.62
2023-05-09T05:08:20.122Z,44.80
2023-05-09T05:10:49.654Z,44.03
2023-05-09T05:13:18.565Z,44.16
2023-05-09T05:15:50.744Z,44.67
2023-05-09T05:18:20.451Z,44.16
2023-05-09T05:20:50.058Z,43.17
2023-05-09T05:23:18.348Z,43.85
2023-05-09T05:25:46.722Z,44.48
2023-05-09T05:28:15.920Z,44.81
2023-05-09T05:30:43.931Z,43.57
2023-05-09T05:33:14.274Z,44.61
2023-05-09T05:35:42.924Z,45.33
2023-05-09T05:38:13.011Z,44.14
2023-05-09T05:40:41.445Z,43.71
2023-05-09T05:43:10.011Z,43.75
2023-05-09T05:45:39.869Z,44.41
2023-05-09T05:48:11.052Z,43.26
2023-05-09T05:50:39.053Z,44.11
2023-05-09T05:53:07.623Z,44.11
2023-05-09T05:55:37.829Z,44.01
2023-05-09T05:58:07.576Z,43.43
2023-05-09T06:00:36.671Z,43.09
2023-05-09T06:03:07.500Z,43.69
2023-05-09T06:05:56.980Z,42.60
2023-05-09T06:08:25.149Z,41.65
2023-05-09T06:10:54.846Z,41.86
2023-05-09T06:13:23.028Z,41.27
2023-05-09T06:16:07.722Z,41.27
2023-05-09T06:18:40.093Z,40.86
2023-05-09T06:21:08.601Z,41.42
2023-05-09T06:23:42.487Z,40.04
2023-05-09T06:26:17.496Z,40.41
2023-05-09T06:28:45.882Z,40.15
2023-05-09T06:31:17.605Z,40.63
2023-05-09T06:33:46.486Z,40.53
2023-05-09T06:36:14.696Z,39.81
2023-05-09T06:38:42.877Z,39.60
2023-05-09T06:41:11.150Z,39.29
2023-05-09T06:43:41.245Z,38.70
2023-05-09T06:46:09.441Z,38.37
2023-05-09T06:48:37.620Z,38.37
2023-05-09T06:51:06.164Z,37.80
2023-05-09T06:53:34.582Z,38.29
2023-05-09T06:56:03.078Z,38.25
2023-05-09T06:58:32.325Z,39.41
2023-05-09T07:01:02.954Z,40.20
2023-05-09T07:03:31.831Z,39.24
2023-05-09T07:06:00.192Z,39.14
2023-05-09T07:08:28.451Z,38.55
2023-05-09T07:11:03.484Z,38.55
2023-05-09T07:13:31.768Z,37.73
2023-05-09T07:16:02.350Z,38.11
2023-05-09T07:18:31.649Z,37.87
2023-05-09T07:21:00.401Z,37.40
2023-05-09T07:23:32.879Z,36.87
2023-05-09T07:26:01.806Z,36.13
2023-05-09T07:28:31.235Z,36.79
2023-05-09T07:31:00.071Z,36.11
2023-05-09T07:33:29.969Z,35.31
2023-05-09T07:36:00.410Z,35.94
2023-05-09T07:38:29.593Z,37.14
2023-05-09T07:40:58.074Z,37.37
2023-05-09T07:43:26.358Z,37.67
2023-05-09T07:45:54.798Z,37.42
2023-05-09T07:48:23.080Z,37.71
2023-05-09T07:50:52.539Z,36.39
2023-05-09T07:53:21.457Z,36.31
2023-05-09T07:55:50.286Z,35.86
2023-05-09T07:58:18.705Z,37.54
2023-05-09T08:00:46.885Z,37.59
2023-05-09T08:03:18.867Z,36.94
2023-05-09T08:05:47.387Z,36.18
2023-05-09T08:08:17.160Z,35.26
2023-05-09T08:10:45.897Z,36.09
2023-05-09T08:13:14.537Z,36.98
2023-05-09T08:15:43.113Z,37.22
2023-05-09T08:18:11.786Z,36.79
2023-05-09T08:20:40.879Z,36.80
2023-05-09T08:23:09.741Z,36.65
2023-05-09T08:25:39.172Z,35.99
2023-05-09T08:28:07.644Z,36.44
2023-05-09T08:30:35.632Z,36.96
2023-05-09T08:33:03.924Z,35.11
2023-05-09T08:35:32.078Z,36.17
2023-05-09T08:38:00.172Z,34.58
2023-05-09T08:40:28.345Z,34.97
2023-05-09T08:42:57.758Z,35.61
2023-05-09T08:45:30.930Z,36.23
2023-05-09T08:48:01.011Z,35.71
2023-05-09T08:50:29.908Z,33.95
2023-05-09T08:52:58.503Z,34.20
2023-05-09T08:55:27.740Z,34.97
2023-05-09T08:57:57.303Z,34.06
2023-05-09T09:00:27.395Z,34.62
2023-05-09T09:02:56.294Z,35.15
2023-05-09T09:05:40.230Z,33.95
2023-05-09T09:08:10.885Z,33.54
2023-05-09T09:10:42.158Z,33.29
2023-05-09T09:13:13.957Z,34.90
2023-05-09T09:15:46.156Z,33.44
2023-05-09T09:18:19.852Z,32.89
2023-05-09T09:20:52.393Z,32.90
2023-05-09T09:23:21.933Z,32.69
2023-05-09T09:25:50.107Z,33.26
2023-05-09T09:28:19.849Z,33.83
2023-05-09T09:30:49.456Z,32.62
2023-05-09T09:33:22.280Z,32.76
2023-05-09T09:35:51.597Z,32.35
2023-05-09T09:38:20.429Z,33.15
2023-05-09T09:40:55.699Z,33.06
2023-05-09T09:43:30.310Z,33.01
2023-05-09T09:45:58.930Z,31.79
2023-05-09T09:48:27.462Z,31.21
2023-05-09T09:50:57.064Z,31.42
2023-05-09T09:53:30.235Z,31.57
2023-05-09T09:55:58.501Z,31.65
2023-05-09T09:58:26.660Z,30.80
2023-05-09T10:01:10.193Z,30.77
2023-05-09T10:03:39.315Z,30.60
2023-05-09T10:06:11.495Z,31.39
2023-05-09T10:08:39.494Z,30.83
2023-05-09T10:11:07.677Z,29.25
2023-05-09T10:13:37.380Z,30.87
2023-05-09T10:16:07.088Z,31.54
2023-05-09T10:18:36.832Z,31.31
2023-05-09T10:21:08.377Z,30.50
2023-05-09T10:23:39.505Z,29.64
2023-05-09T10:26:17.785Z,30.65
2023-05-09T10:28:49.083Z,29.72
2023-05-09T10:31:26.844Z,30.92
2023-05-09T10:33:57.236Z,31.71
2023-05-09T10:36:25.252Z,31.13
2023-05-09T10:38:55.327Z,29.55
2023-05-09T10:41:24.268Z,29.34
2023-05-09T10:43:53.088Z,29.37
2023-05-09T10:46:21.750Z,29.20
2023-05-09T10:48:50.925Z,30.00
2023-05-09T10:51:20.523Z,28.95
2023-05-09T10:53:49.797Z,30.08
2023-05-09T10:56:25.446Z,29.06
2023-05-09T10:58:54.515Z,29.07
2023-05-09T11:01:35.422Z,29.94
2023-05-09T11:04:10.708Z,30.03
2023-05-09T11:06:47.602Z,28.75
2023-05-09T11:09:36.069Z,28.40
2023-05-09T11:12:14.234Z,27.79
2023-05-09T11:14:44.660Z,28.78
2023-05-09T11:17:14.846Z,29.05
2023-05-09T11:20:05.705Z,29.11
2023-05-09T11:22:42.809Z,28.99
2023-05-09T11:25:13.797Z,28.50
2023-05-09T11:27:44.858Z,29.41
2023-05-09T11:30:15.721Z,28.11
2023-05-09T11:32:47.676Z,29.01
2023-05-09T11:35:17.863Z,28.11
2023-05-09T11:37:49.318Z,28.42
2023-05-09T11:40:21.017Z,28.89
2023-05-09T11:42:54.684Z,27.98
2023-05-09T11:45:25.591Z,27.57
2023-05-09T11:47:54.089Z,27.71
2023-05-09T11:50:22.494Z,26.79
2023-05-09T11:52:52.600Z,28.00
2023-05-09T11:55:23.238Z,27.39
2023-05-09T11:57:53.162Z,26.87
2023-05-09T12:00:23.188Z,28.19
2023-05-09T12:02:52.704Z,28.52
2023-05-09T12:05:22.784Z,27.04
2023-05-09T12:07:52.782Z,29.17
2023-05-09T12:10:23.217Z,28.94
2023-05-09T12:12:53.024Z,28.39
2023-05-09T12:15:21.511Z,27.16
2023-05-09T12:18:03.071Z,27.74
2023-05-09T12:20:41.684Z,27.60
2023-05-09T12:23:12.709Z,27.30
2023-05-09T12:25:50.890Z,27.96
2023-05-09T12:28:19.422Z,27.76
2023-05-09T12:30:47.810Z,27.10
2023-05-09T12:33:16.192Z,27.28
2023-05-09T12:35:47.370Z,27.88
2023-05-09T12:38:21.983Z,27.41
2023-05-09T12:40:50.077Z,26.43
2023-05-09T12:43:18.816Z,26.61
2023-05-09T12:45:46.820Z,28.68
2023-05-09T12:48:15.201Z,29.52
2023-05-09T12:50:48.587Z,28.74
2023-05-09T12:53:26.528Z,28.00
2023-05-09T12:56:02.736Z,27.65
2023-05-09T12:58:31.991Z,28.28
2023-05-09T13:01:00.999Z,28.85
2023-05-09T13:03:37.624Z,28.72
2023-05-09T13:06:07.391Z,29.53
2023-05-09T13:08:37.485Z,28.50
2023-05-09T13:11:15.520Z,27.58
2023-05-09T13:13:44.907Z,30.17
2023-05-09T13:16:15.774Z,29.34
2023-05-09T13:18:45.469Z,29.78
2023-05-09T13:21:13.713Z,30.01
2023-05-09T13:23:44.520Z,29.41
2023-05-09T13:26:12.942Z,29.00
2023-05-09T13:28:41.179Z,28.20
2023-05-09T13:31:09.388Z,28.69
2023-05-09T13:33:38.900Z,29.34
2023-05-09T13:36:07.392Z,28.16
2023-05-09T13:38:38.904Z,27.37
2023-05-09T13:41:08.641Z,28.58
2023-05-09T13:43:37.516Z,27.83
2023-05-09T13:46:05.505Z,29.12
2023-05-09T13:48:33.791Z,28.88
2023-05-09T13:51:01.643Z,28.22
2023-05-09T13:53:29.681Z,29.73
2023-05-09T13:55:57.672Z,27.78
2023-05-09T13:58:26.925Z,27.87
2023-05-09T14:00:54.810Z,27.14
2023-05-09T14:03:22.710Z,28.31
2023-05-09T14:05:50.910Z,28.69
2023-05-09T14:08:19.053Z,28.53
2023-05-09T14:10:48.296Z,29.11
2023-05-09T14:13:16.494Z,30.52
2023-05-09T14:15:46.002Z,29.87
2023-05-09T14:18:17.137Z,28.86
2023-05-09T14:20:47.453Z,30.32
2023-05-09T14:23:15.491Z,30.45
2023-05-09T14:25:43.566Z,30.10
2023-05-09T14:28:11.944Z,30.17
2023-05-09T14:30:39.775Z,30.54
2023-05-09T14:33:09.078Z,31.29
2023-05-09T14:35:39.695Z,30.38
2023-05-09T14:38:09.107Z,29.58
2023-05-09T14:40:37.624Z,29.92
2023-05-09T14:43:05.845Z,28.90
2023-05-09T14:45:34.918Z,29.04
2023-05-09T14:48:03.758Z,29.04
2023-05-09T14:50:33.472Z,28.90
2023-05-09T14:53:04.025Z,28.75
2023-05-09T14:55:32.488Z,27.87
2023-05-09T14:58:00.409Z,27.43
2023-05-09T15:00:29.233Z,26.98
2023-05-09T15:02:57.759Z,28.71
2023-05-09T15:05:26.312Z,28.88
2023-05-09T15:07:55.690Z,29.39
2023-05-09T15:10:23.954Z,28.96
2023-05-09T15:12:51.850Z,30.16
2023-05-09T15:15:23.226Z,30.89
2023-05-09T15:17:51.647Z,30.28
2023-05-09T15:20:20.054Z,30.36
2023-05-09T15:22:48.894Z,30.32
2023-05-09T15:25:18.334Z,29.71
2023-05-09T15:27:46.318Z,29.15
2023-05-09T15:30:15.427Z,30.54
2023-05-09T15:32:43.797Z,29.09
2023-05-09T15:35:11.948Z,29.63
2023-05-09T15:37:40.040Z,29.76
2023-05-09T15:40:09.199Z,29.83
2023-05-09T15:42:39.740Z,29.28
2023-05-09T15:45:08.881Z,28.98
2023-05-09T15:47:36.872Z,29.91
2023-05-09T15:50:05.109Z,31.26
2023-05-09T15:52:33.260Z,29.86
2023-05-09T15:55:01.362Z,31.06
2023-05-09T15:57:29.421Z,29.06
2023-05-09T15:59:58.624Z,29.71
2023-05-09T16:02:28.514Z,29.56
2023-05-09T16:04:56.770Z,29.65
2023-05-09T16:07:24.667Z,28.69
2023-05-09T16:09:52.637Z,29.65
2023-05-09T16:12:20.580Z,30.11
2023-05-09T16:14:48.531Z,29.66
2023-05-09T16:17:17.795Z,30.25
2023-05-09T16:19:45.783Z,28.94
2023-05-09T16:22:14.005Z,30.51
2023-05-09T16:24:41.866Z,29.65
2023-05-09T16:27:09.804Z,28.90
2023-05-09T16:29:37.646Z,28.16
2023-05-09T16:32:05.983Z,27.97
2023-05-09T16:34:35.523Z,26.87
2023-05-09T16:37:03.784Z,27.67
2023-05-09T16:39:32.352Z,28.74
2023-05-09T16:42:00.363Z,27.55
2023-05-09T16:44:28.418Z,27.01
2023-05-09T16:46:56.326Z,26.65
2023-05-09T16:49:24.287Z,28.79
2023-05-09T16:51:53.675Z,28.47
2023-05-09T16:54:23.059Z,28.01
2023-05-09T16:56:50.972Z,27.30
2023-05-09T16:59:20.210Z,27.72
2023-05-09T17:01:50.049Z,28.78
2023-05-09T17:04:18.043Z,27.67
2023-05-09T17:06:45.903Z,28.21
2023-05-09T17:09:15.191Z,29.60
2023-05-09T17:11:43.193Z,29.19
2023-05-09T17:14:11.316Z,29.61
2023-05-09T17:16:39.271Z,29.91
2023-05-09T17:19:07.175Z,30.34
2023-05-09T17:21:35.648Z,29.84
2023-05-09T17:24:03.755Z,30.53
2023-05-09T17:26:33.286Z,29.70
2023-05-09T17:29:01.706Z,29.76
2023-05-09T17:31:29.722Z,29.84
2023-05-09T17:33:58.235Z,30.11
2023-05-09T17:36:26.783Z,30.31
2023-05-09T17:38:54.944Z,30.04
2023-05-09T17:41:23.011Z,29.30
2023-05-09T17:43:56.365Z,30.35
2023-05-09T17:46:24.960Z,30.26
2023-05-09T17:48:53.252Z,30.69
2023-05-09T17:51:21.884Z,30.67
2023-05-09T17:53:49.996Z,29.97
2023-05-09T17:56:18.081Z,30.04
2023-05-09T17:58:51.358Z,30.84
2023-05-09T18:01:21.268Z,30.32
2023-05-09T18:03:49.476Z,30.93
2023-05-09T18:06:18.252Z,30.71
2023-05-09T18:08:46.260Z,30.51
2023-05-09T18:11:15.182Z,29.94
2023-05-09T18:13:44.193Z,30.13
2023-05-09T18:16:17.205Z,30.05
2023-05-09T18:18:47.140Z,30.80
2023-05-09T18:21:15.685Z,30.66
2023-05-09T18:23:43.675Z,31.15
2023-05-09T18:26:11.552Z,30.99
2023-05-09T18:28:40.586Z,30.98
2023-05-09T18:31:11.830Z,30.57
2023-05-09T18:33:40.099Z,30.82
2023-05-09T18:36:11.316Z,31.00
2023-05-09T18:38:40.916Z,30.26
2023-05-09T18:41:10.726Z,30.88
2023-05-09T18:43:46.296Z,30.26
2023-05-09T18:46:20.898Z,30.83
2023-05-09T18:48:55.900Z,31.04
2023-05-09T18:51:26.678Z,30.56
2023-05-09T18:53:56.966Z,30.91
2023-05-09T18:56:25.434Z,31.07
2023-05-09T18:58:53.412Z,30.48
2023-05-09T19:01:21.423Z,30.61
2023-05-09T19:03:54.549Z,30.65
2023-05-09T19:06:24.361Z,30.43
2023-05-09T19:08:54.215Z,30.71
2023-05-09T19:11:22.293Z,30.44
2023-05-09T19:13:50.282Z,29.90
2023-05-09T19:16:20.461Z,30.25
2023-05-09T19:18:48.765Z,29.96
2023-05-09T19:21:18.826Z,30.38
2023-05-09T19:23:47.847Z,29.95
2023-05-09T19:26:17.661Z,30.04
2023-05-09T19:28:46.801Z,29.47
2023-05-09T19:31:15.896Z,30.21
2023-05-09T19:33:45.344Z,30.06
2023-05-09T19:36:13.663Z,30.11
2023-05-09T19:38:41.635Z,29.49
2023-05-09T19:41:10.869Z,29.76
2023-05-09T19:43:40.156Z,29.78
2023-05-09T19:46:08.400Z,29.91
2023-05-09T19:48:36.500Z,29.48
2023-05-09T19:51:05.182Z,29.29
2023-05-09T19:53:33.112Z,29.31
2023-05-09T19:56:01.139Z,29.31
2023-05-09T19:58:29.070Z,29.89
2023-05-09T20:01:01.959Z,29.60
2023-05-09T20:03:30.166Z,29.34
2023-05-09T20:05:58.341Z,28.90
2023-05-09T20:08:26.579Z,28.57
2023-05-09T20:10:55.931Z,29.01
2023-05-09T20:13:24.436Z,29.48
2023-05-09T20:15:52.382Z,28.77
2023-05-09T20:18:22.067Z,29.64
2023-05-09T20:20:50.073Z,29.13
2023-05-09T20:23:18.089Z,29.65
2023-05-09T20:25:45.965Z,30.06
2023-05-09T20:28:19.642Z,29.32
2023-05-09T20:30:47.685Z,29.67
2023-05-09T20:33:15.971Z,29.34
2023-05-09T20:35:45.489Z,29.58
2023-05-09T20:38:13.393Z,29.38
2023-05-09T20:40:41.445Z,30.00
2023-05-09T20:43:09.512Z,29.34
2023-05-09T20:45:38.449Z,29.56
2023-05-09T20:48:08.012Z,29.53
2023-05-09T20:50:35.989Z,30.22
2023-05-09T20:53:05.293Z,29.88
2023-05-09T20:55:33.382Z,29.58
2023-05-09T20:58:02.515Z,29.62
2023-05-09T21:00:30.825Z,29.11
2023-05-09T21:02:59.019Z,28.82
2023-05-09T21:05:27.327Z,29.62
2023-05-09T21:07:56.718Z,29.58
2023-05-09T21:10:26.036Z,30.16
2023-05-09T21:12:54.291Z,29.50
2023-05-09T21:15:22.426Z,29.38
2023-05-09T21:17:50.457Z,30.07
2023-05-09T21:20:18.935Z,30.11
2023-05-09T21:22:47.205Z,30.07
2023-05-09T21:25:15.540Z,30.27
2023-05-09T21:27:45.259Z,30.27
2023-05-09T21:30:13.470Z,29.77
2023-05-09T21:32:41.727Z,30.35
2023-05-09T21:35:12.742Z,29.77
2023-05-09T21:37:40.929Z,30.42
2023-05-09T21:40:10.122Z,30.14
2023-05-09T21:42:40.164Z,30.32
2023-05-09T21:45:10.560Z,30.61
2023-05-09T21:47:39.721Z,30.97
2023-05-09T21:50:08.562Z,30.79
2023-05-09T21:52:36.757Z,30.34
2023-05-09T21:55:05.113Z,31.69
2023-05-09T21:57:33.066Z,31.23
2023-05-09T22:00:01.957Z,31.42
2023-05-09T22:02:31.756Z,30.64
2023-05-09T22:05:00.354Z,31.14
2023-05-09T22:07:28.455Z,31.98
2023-05-09T22:09:56.609Z,32.39
2023-05-09T22:12:24.659Z,31.61
2023-05-09T22:14:56.649Z,32.35
2023-05-09T22:17:25.104Z,31.92
2023-05-09T22:19:54.462Z,31.89
2023-05-09T22:22:23.098Z,32.70
2023-05-09T22:24:51.167Z,32.98
2023-05-09T22:27:19.364Z,32.65
2023-05-09T22:29:47.567Z,32.51
2023-05-09T22:32:15.736Z,32.66
2023-05-09T22:34:43.674Z,32.91
2023-05-09T22:37:13.067Z,33.36
2023-05-09T22:39:41.436Z,33.22
2023-05-09T22:42:11.330Z,33.06
2023-05-09T22:44:39.481Z,33.68
2023-05-09T22:47:08.744Z,32.49
2023-05-09T22:49:36.725Z,33.32
2023-05-09T22:52:04.900Z,33.08
2023-05-09T22:54:34.196Z,33.37
2023-05-09T22:57:02.164Z,33.07
2023-05-09T22:59:30.245Z,33.00
2023-05-09T23:01:58.426Z,32.87
2023-05-09T23:04:26.327Z,32.59
2023-05-09T23:06:54.156Z,32.47
2023-05-09T23:09:22.313Z,32.22
2023-05-09T23:11:51.714Z,31.85
2023-05-09T23:14:19.713Z,31.97
2023-05-09T23:16:48.847Z,31.92
2023-05-09T23:19:16.726Z,32.02
2023-05-09T23:21:44.511Z,31.63
2023-05-09T23:24:12.392Z,32.11
2023-05-09T23:26:40.375Z,32.30
2023-05-09T23:29:09.727Z,32.53
2023-05-09T23:31:37.612Z,32.21
2023-05-09T23:34:05.689Z,31.97
2023-05-09T23:36:33.689Z,32.46
2023-05-09T23:39:01.464Z,32.33
2023-05-09T23:41:29.432Z,32.43
2023-05-09T23:43:58.082Z,32.28
2023-05-09T23:46:27.436Z,32.24
2023-05-09T23:48:55.258Z,31.56
2023-05-09T23:51:23.618Z,31.62
2023-05-09T23:53:51.467Z,33.76
2023-05-09T23:56:19.340Z,33.19
2023-05-09T23:58:47.306Z,33.57
